Time;durP1;ratioP1;P1;durP2;ratioP2;P2;SDS_P1;SDS_P2;PMS_P1;PMS_P2;Temp;Humidity;BMP_temperature;BMP_pressure;BME280_temperature;BME280_humidity;BME280_pressure;Samples;Min_cycle;Max_cycle;Signal;HPM_P1;HPM_P2
2022/06/13 00:01:12;;;;;;;11.80;4.30;;;13.60;99.90;;;;;;5032320;28;20045;-76
2022/06/13 00:03:38;;;;;;;7.50;4.22;;;13.50;99.90;;;;;;5032167;28;20077;-75
2022/06/13 00:06:04;;;;;;;7.38;3.97;;;13.60;99.90;;;;;;5032584;28;20049;-75
2022/06/13 00:08:29;;;;;;;9.65;3.67;;;13.60;99.90;;;;;;5033913;28;20816;-75
2022/06/13 00:10:55;;;;;;;11.80;3.55;;;13.60;99.90;;;;;;5032290;28;20037;-75
2022/06/13 00:13:21;;;;;;;7.15;3.20;;;13.70;99.90;;;;;;5032362;28;20536;-75
2022/06/13 00:15:46;;;;;;;9.80;4.18;;;13.70;99.90;;;;;;5033727;28;20041;-75
2022/06/13 00:18:12;;;;;;;9.63;3.70;;;13.60;99.90;;;;;;5032644;28;20096;-76
2022/06/13 00:20:37;;;;;;;8.20;3.47;;;13.70;99.90;;;;;;5032427;28;20057;-75
2022/06/13 00:23:03;;;;;;;9.15;3.03;;;13.70;99.90;;;;;;5032212;28;20052;-76
2022/06/13 00:25:29;;;;;;;8.10;3.78;;;13.70;99.90;;;;;;5031957;28;20037;-75
2022/06/13 00:27:55;;;;;;;6.53;3.25;;;13.70;99.90;;;;;;5032178;28;20116;-76
2022/06/13 00:30:21;;;;;;;13.38;3.58;;;13.70;99.90;;;;;;5031897;28;20049;-75
2022/06/13 00:32:47;;;;;;;10.27;3.92;;;13.70;99.90;;;;;;5032044;28;20049;-76
2022/06/13 00:35:12;;;;;;;10.43;3.05;;;13.70;99.90;;;;;;5032010;28;20045;-77
2022/06/13 00:37:38;;;;;;;8.55;3.13;;;13.70;99.90;;;;;;5032064;28;20041;-75
2022/06/13 00:40:05;;;;;;;12.07;3.90;;;13.80;99.90;;;;;;5031622;28;20033;-75
2022/06/13 00:42:30;;;;;;;7.30;3.58;;;13.70;99.90;;;;;;5031846;28;20111;-75
2022/06/13 00:45:18;;;;;;;10.30;3.75;;;13.80;99.90;;;;;;5033045;28;20037;-75
2022/06/13 00:47:46;;;;;;;13.13;4.18;;;13.80;99.90;;;;;;5032039;28;20053;-75
2022/06/13 00:50:24;;;;;;;9.10;4.03;;;13.80;99.90;;;;;;5031753;28;20111;-75
2022/06/13 00:53:08;;;;;;;8.43;3.67;;;13.80;99.90;;;;;;5031787;28;20425;-77
2022/06/13 00:55:37;;;;;;;11.55;3.97;;;13.80;99.90;;;;;;5032659;28;20037;-77
2022/06/13 00:58:04;;;;;;;14.48;4.82;;;13.80;99.90;;;;;;5032236;28;20052;-76
2022/06/13 01:00:32;;;;;;;15.02;4.50;;;13.70;99.90;;;;;;5032459;28;20503;-78
2022/06/13 01:03:00;;;;;;;11.45;4.00;;;13.80;99.90;;;;;;5032408;28;20099;-76
2022/06/13 01:05:30;;;;;;;11.10;4.50;;;13.80;99.90;;;;;;5032166;28;20111;-78
2022/06/13 01:07:58;;;;;;;9.60;4.68;;;13.80;99.90;;;;;;5032998;28;20056;-77
2022/06/13 01:13:10;;;;;;;14.55;4.72;;;13.80;99.90;;;;;;5031904;28;20072;-76
2022/06/13 01:15:47;;;;;;;15.48;4.57;;;13.80;99.90;;;;;;5030986;28;20140;-76
2022/06/13 01:18:31;;;;;;;9.98;4.80;;;13.80;99.90;;;;;;5033029;28;20056;-78
2022/06/13 01:21:16;;;;;;;10.93;4.32;;;13.80;99.90;;;;;;5031408;28;20469;-77
2022/06/13 01:23:47;;;;;;;11.18;4.65;;;13.80;99.90;;;;;;5032805;28;20052;-78
2022/06/13 01:26:52;;;;;;;9.50;4.10;;;13.80;99.90;;;;;;5032805;28;20050;-77
2022/06/13 01:29:43;;;;;;;13.65;4.40;;;13.80;99.90;;;;;;5033243;28;20046;-77
2022/06/13 01:32:17;;;;;;;13.40;4.70;;;13.80;99.90;;;;;;5033205;28;20092;-77
2022/06/13 01:34:51;;;;;;;14.48;5.05;;;13.90;99.90;;;;;;5033544;28;20041;-77
2022/06/13 01:37:42;;;;;;;13.02;4.82;;;13.80;99.90;;;;;;5032944;28;20052;-77
2022/06/13 01:40:43;;;;;;;14.98;5.18;;;13.80;99.90;;;;;;5032888;28;20049;-77
2022/06/13 01:43:24;;;;;;;10.63;4.57;;;13.70;99.90;;;;;;4998317;28;20572;-76
2022/06/13 01:46:17;;;;;;;16.05;5.22;;;13.70;99.90;;;;;;5033173;28;20048;-77
2022/06/13 01:48:57;;;;;;;12.07;5.32;;;13.70;99.90;;;;;;5032759;28;20400;-75
2022/06/13 01:51:55;;;;;;;17.08;5.53;;;13.60;99.90;;;;;;5015341;28;20052;-76
2022/06/13 01:54:42;;;;;;;12.80;4.93;;;13.70;99.90;;;;;;5013475;28;20133;-77
2022/06/13 01:57:19;;;;;;;12.05;5.93;;;13.70;99.90;;;;;;5031911;28;20041;-77
2022/06/13 01:59:54;;;;;;;12.90;4.97;;;13.60;99.90;;;;;;5031231;28;20531;-78
2022/06/13 02:02:37;;;;;;;11.85;4.75;;;13.60;99.90;;;;;;5032156;28;20048;-76
2022/06/13 02:05:28;;;;;;;15.00;5.03;;;13.60;99.90;;;;;;5031793;28;20052;-76
2022/06/13 02:08:08;;;;;;;12.98;4.93;;;13.70;99.90;;;;;;5031653;28;20053;-78
2022/06/13 02:10:41;;;;;;;12.05;4.88;;;13.70;99.90;;;;;;5014933;28;20077;-78
2022/06/13 02:13:13;;;;;;;10.70;4.53;;;13.70;99.90;;;;;;5032634;28;20120;-77
2022/06/13 02:15:44;;;;;;;10.82;4.78;;;13.70;99.90;;;;;;5032259;28;20104;-77
2022/06/13 02:18:20;;;;;;;9.45;4.60;;;13.70;99.90;;;;;;5031608;28;20037;-77
2022/06/13 02:20:49;;;;;;;12.88;4.32;;;13.70;99.90;;;;;;5031257;28;20041;-77
2022/06/13 02:23:25;;;;;;;12.23;4.82;;;13.60;99.90;;;;;;5031247;28;20046;-78
2022/06/13 02:26:02;;;;;;;17.33;5.28;;;13.60;99.90;;;;;;5030590;28;20448;-77
2022/06/13 02:28:49;;;;;;;9.13;4.20;;;13.60;99.90;;;;;;5031074;28;20489;-76
2022/06/13 02:31:23;;;;;;;12.55;4.20;;;13.50;99.90;;;;;;5030874;28;20053;-77
2022/06/13 02:34:01;;;;;;;13.77;4.15;;;13.50;99.90;;;;;;5031099;28;20451;-77
2022/06/13 02:36:49;;;;;;;15.27;4.72;;;13.50;99.90;;;;;;5031480;28;20037;-76
2022/06/13 02:39:30;;;;;;;10.55;4.05;;;13.50;99.90;;;;;;5031144;28;20048;-77
2022/06/13 02:42:23;;;;;;;10.57;4.07;;;13.50;99.90;;;;;;5031589;28;20447;-76
2022/06/13 02:45:03;;;;;;;11.55;4.20;;;13.40;99.90;;;;;;5044052;28;20060;-77
2022/06/13 02:47:38;;;;;;;11.65;5.30;;;13.50;99.90;;;;;;5031574;28;20081;-77
2022/06/13 02:50:18;;;;;;;11.30;4.68;;;13.50;99.90;;;;;;5031537;28;20060;-77
2022/06/13 02:52:59;;;;;;;14.63;4.97;;;13.50;99.90;;;;;;5031564;28;20054;-75
2022/06/13 02:55:25;;;;;;;13.10;5.13;;;13.40;99.90;;;;;;5030047;28;20049;-75
2022/06/13 02:58:03;;;;;;;15.38;5.28;;;13.40;99.90;;;;;;5029853;28;20532;-76
2022/06/13 03:01:03;;;;;;;16.17;5.18;;;13.40;99.90;;;;;;5047738;28;20041;-80
2022/06/13 03:03:36;;;;;;;15.40;4.80;;;13.30;99.90;;;;;;5065477;28;20045;-80
2022/06/13 03:06:10;;;;;;;10.10;4.93;;;13.30;99.90;;;;;;5029622;28;20404;-76
2022/06/13 03:08:56;;;;;;;11.02;5.00;;;13.30;99.90;;;;;;5029513;28;20045;-76
2022/06/13 03:11:38;;;;;;;11.98;4.95;;;13.20;99.90;;;;;;5029202;28;20489;-75
2022/06/13 03:14:34;;;;;;;14.70;5.28;;;13.20;99.90;;;;;;5029325;28;20596;-77
2022/06/13 03:17:14;;;;;;;16.88;5.55;;;13.20;99.90;;;;;;5031113;28;20057;-78
2022/06/13 03:19:52;;;;;;;10.05;4.68;;;13.10;99.90;;;;;;5029313;28;20128;-77
2022/06/13 03:22:27;;;;;;;11.35;5.45;;;13.20;99.90;;;;;;5029636;28;20076;-78
2022/06/13 03:25:11;;;;;;;10.00;5.40;;;13.20;99.90;;;;;;5029504;28;20477;-78
2022/06/13 03:27:50;;;;;;;14.85;5.20;;;13.20;99.90;;;;;;5029393;28;20477;-78
2022/06/13 03:30:19;;;;;;;15.73;5.07;;;13.20;99.90;;;;;;5029065;28;20041;-77
2022/06/13 03:35:42;;;;;;;16.02;5.75;;;13.20;99.90;;;;;;5030002;28;20049;-78
2022/06/13 03:38:16;;;;;;;16.40;5.88;;;13.20;99.90;;;;;;5029515;28;20042;-77
2022/06/13 03:40:48;;;;;;;13.52;6.00;;;13.20;99.90;;;;;;5032469;28;20041;-78
2022/06/13 03:43:45;;;;;;;13.47;6.00;;;13.20;99.90;;;;;;5033416;28;20046;-78
2022/06/13 03:46:21;;;;;;;12.23;5.18;;;13.20;99.90;;;;;;5032833;28;20045;-78
2022/06/13 03:49:10;;;;;;;13.38;5.82;;;13.20;99.90;;;;;;5033237;28;20045;-78
2022/06/13 03:51:41;;;;;;;17.13;6.95;;;13.30;99.90;;;;;;5032548;28;20045;-77
2022/06/13 03:54:34;;;;;;;13.85;6.50;;;13.30;99.90;;;;;;5033010;28;20041;-77
2022/06/13 03:57:12;;;;;;;;;;;13.30;99.90;;;;;;5025884;28;20046;-77
2022/06/13 03:59:40;;;;;;;10.65;5.70;;;13.40;99.90;;;;;;5032617;28;19917;-77
2022/06/13 04:02:13;;;;;;;15.90;6.45;;;13.40;99.90;;;;;;5032415;28;20041;-77
2022/06/13 04:04:43;;;;;;;19.35;7.55;;;13.40;99.90;;;;;;5032358;28;20465;-76
2022/06/13 04:07:09;;;;;;;12.50;6.82;;;13.40;99.90;;;;;;5032667;28;20120;-75
2022/06/13 04:09:39;;;;;;;18.58;6.40;;;13.50;99.90;;;;;;5032196;28;20041;-76
2022/06/13 04:12:31;;;;;;;16.25;6.45;;;13.50;99.90;;;;;;5032482;28;20052;-77
2022/06/13 04:15:03;;;;;;;13.52;6.47;;;13.60;99.90;;;;;;5027242;28;20489;-79
2022/06/13 04:17:56;;;;;;;21.42;7.22;;;13.60;99.90;;;;;;5017217;28;20045;-78
2022/06/13 04:20:33;;;;;;;21.40;7.25;;;13.70;99.90;;;;;;5017830;28;20072;-79
2022/06/13 04:23:24;;;;;;;20.20;7.30;;;13.70;99.90;;;;;;5033488;28;20516;-78
2022/06/13 04:25:56;;;;;;;17.55;6.85;;;13.70;99.90;;;;;;5034212;28;20132;-79
2022/06/13 04:28:28;;;;;;;;;;;13.70;99.90;;;;;;5017859;28;20502;-79
2022/06/13 04:30:55;;;;;;;17.05;6.78;;;13.80;99.90;;;;;;5017372;28;19981;-79
2022/06/13 04:33:33;;;;;;;16.75;6.78;;;13.80;99.90;;;;;;5033744;28;20041;-79
2022/06/13 04:35:59;;;;;;;22.90;7.10;;;13.90;99.90;;;;;;5033596;28;20046;-80
2022/06/13 04:38:27;;;;;;;25.10;9.45;;;14.00;99.90;;;;;;5032081;28;20049;-79
2022/06/13 04:40:59;;;;;;;16.70;6.50;;;14.00;99.90;;;;;;5031904;28;20488;-79
2022/06/13 04:43:28;;;;;;;12.82;6.10;;;14.10;99.90;;;;;;5018426;28;20598;-79
2022/06/13 04:46:00;;;;;;;12.75;5.78;;;14.20;99.90;;;;;;5036283;28;20038;-79
2022/06/13 04:48:27;;;;;;;12.27;5.90;;;14.20;99.90;;;;;;5032457;28;20037;-79
2022/06/13 04:50:57;;;;;;;15.32;6.35;;;14.20;99.90;;;;;;5032554;28;20095;-79
2022/06/13 04:53:28;;;;;;;12.93;6.82;;;14.20;99.90;;;;;;5015164;28;20049;-79
2022/06/13 04:55:54;;;;;;;20.17;5.68;;;14.20;99.90;;;;;;5032880;28;20085;-78
2022/06/13 04:58:31;;;;;;;15.32;6.50;;;14.20;99.90;;;;;;5014883;28;20045;-79
2022/06/13 05:01:00;;;;;;;32.90;8.32;;;14.30;99.90;;;;;;5031140;28;20049;-79
2022/06/13 05:03:30;;;;;;;39.58;19.45;;;14.30;99.90;;;;;;5032501;28;20069;-80
2022/06/13 05:06:13;;;;;;;15.90;6.95;;;14.40;99.90;;;;;;5032379;28;20088;-80
2022/06/13 05:08:40;;;;;;;11.48;5.20;;;14.70;99.90;;;;;;5032069;28;20069;-80
2022/06/13 05:11:22;;;;;;;10.98;4.85;;;15.20;99.90;;;;;;5033620;28;20041;-80
2022/06/13 05:13:51;;;;;;;11.10;5.05;;;16.10;99.90;;;;;;5035735;28;20076;-79
2022/06/13 05:16:44;;;;;;;11.43;3.95;;;16.60;99.90;;;;;;5032575;28;20053;-79
2022/06/13 05:19:32;;;;;;;8.45;3.70;;;16.80;99.90;;;;;;5031615;28;20072;-80
2022/06/13 05:22:18;;;;;;;16.60;4.05;;;16.70;99.90;;;;;;5032928;28;20064;-79
2022/06/13 05:24:50;;;;;;;14.70;5.15;;;16.50;99.90;;;;;;5032080;28;20143;-80
2022/06/13 05:27:16;;;;;;;8.35;3.58;;;16.40;99.90;;;;;;5032374;28;20041;-80
2022/06/13 05:29:41;;;;;;;9.63;3.08;;;16.30;99.90;;;;;;5030406;28;20038;-80
2022/06/13 05:32:09;;;;;;;10.35;3.63;;;16.30;99.90;;;;;;5032272;28;20124;-79
2022/06/13 05:34:39;;;;;;;7.53;2.55;;;16.40;99.90;;;;;;5033498;28;20500;-77
2022/06/13 05:37:06;;;;;;;17.38;3.72;;;16.60;99.90;;;;;;5035952;28;20412;-78
2022/06/13 05:39:34;;;;;;;8.40;2.58;;;17.00;99.90;;;;;;5033160;28;20142;-76
2022/06/13 05:41:59;;;;;;;8.07;2.70;;;17.40;99.90;;;;;;5031484;28;20041;-78
2022/06/13 05:44:25;;;;;;;10.00;2.60;;;18.00;99.90;;;;;;5030950;28;20037;-79
2022/06/13 05:46:51;;;;;;;7.18;2.28;;;18.60;99.90;;;;;;5031761;28;20383;-78
2022/06/13 05:49:17;;;;;;;7.95;2.53;;;19.10;99.90;;;;;;5031235;28;20045;-78
2022/06/13 05:51:44;;;;;;;7.55;2.42;;;19.50;99.90;;;;;;5030757;28;20520;-79
2022/06/13 05:54:11;;;;;;;6.43;2.17;;;19.80;99.90;;;;;;5030827;28;20052;-79
2022/06/13 05:56:38;;;;;;;6.65;2.25;;;20.30;99.90;;;;;;5031126;28;20081;-79
2022/06/13 05:59:04;;;;;;;8.38;2.08;;;20.70;99.90;;;;;;5031263;28;20053;-79
2022/06/13 06:01:29;;;;;;;6.68;2.22;;;20.90;99.90;;;;;;5030566;28;20041;-78
2022/06/13 06:03:55;;;;;;;7.07;2.10;;;20.60;99.90;;;;;;5031412;28;20068;-78
2022/06/13 06:06:27;;;;;;;9.55;2.70;;;20.00;99.90;;;;;;5030731;28;20128;-79
2022/06/13 06:08:56;;;;;;;6.32;2.13;;;19.60;99.90;;;;;;5032797;28;20047;-78
2022/06/13 06:11:22;;;;;;;5.88;2.13;;;19.20;99.90;;;;;;5031485;28;20045;-78
2022/06/13 06:13:48;;;;;;;7.43;2.42;;;18.80;99.90;;;;;;5030770;28;20065;-79
2022/06/13 06:16:16;;;;;;;6.47;2.08;;;18.60;99.90;;;;;;5030643;28;20473;-79
2022/06/13 06:18:42;;;;;;;7.07;1.85;;;19.00;99.90;;;;;;5030784;28;20148;-77
2022/06/13 06:21:08;;;;;;;6.18;1.80;;;19.50;99.90;;;;;;5030778;28;20564;-78
2022/06/13 06:23:35;;;;;;;4.22;1.67;;;19.40;99.90;;;;;;5040398;28;20168;-76
2022/06/13 06:26:02;;;;;;;5.95;1.65;;;19.00;99.90;;;;;;5050034;28;20205;-76
2022/06/13 06:28:28;;;;;;;7.57;1.65;;;18.60;99.90;;;;;;5045344;28;20057;-78
2022/06/13 06:30:56;;;;;;;6.65;1.67;;;18.60;99.90;;;;;;5029381;28;20052;-79
2022/06/13 06:33:23;;;;;;;5.13;1.63;;;18.80;99.90;;;;;;5030658;28;20049;-79
2022/06/13 06:35:51;;;;;;;4.75;1.30;;;19.20;99.90;;;;;;5030096;28;20041;-80
2022/06/13 06:38:18;;;;;;;7.43;1.30;;;19.80;99.90;;;;;;5029927;28;20372;-78
2022/06/13 06:40:44;;;;;;;6.53;1.80;;;20.00;99.90;;;;;;5029244;28;20128;-76
2022/06/13 06:43:09;;;;;;;7.30;1.90;;;20.00;99.90;;;;;;5029470;28;20124;-76
2022/06/13 06:45:36;;;;;;;4.82;1.70;;;20.10;99.90;;;;;;5029208;28;20049;-77
2022/06/13 06:48:02;;;;;;;7.32;1.70;;;20.00;99.90;;;;;;5029445;28;20052;-76
2022/06/13 06:50:34;;;;;;;2.88;1.15;;;19.90;99.90;;;;;;5029939;28;20056;-77
2022/06/13 06:52:59;;;;;;;6.10;1.13;;;19.60;99.90;;;;;;5029966;28;20046;-77
2022/06/13 07:01:01;;;;;;;9.00;1.80;;;18.20;99.90;;;;;;5030674;28;20057;-80
2022/06/13 07:03:27;;;;;;;9.02;1.60;;;17.50;99.90;;;;;;5013289;28;20131;-81
2022/06/13 07:05:53;;;;;;;10.10;1.70;;;16.70;99.90;;;;;;5014021;28;20077;-81
2022/06/13 07:08:19;;;;;;;7.47;2.05;;;16.20;99.90;;;;;;5029634;28;20427;-81
2022/06/13 07:10:47;;;;;;;5.35;1.45;;;15.80;99.90;;;;;;5028987;28;20459;-80
2022/06/13 07:13:14;;;;;;;4.00;1.50;;;15.40;99.90;;;;;;5029258;28;20046;-81
2022/06/13 07:15:40;;;;;;;5.00;1.35;;;15.10;99.90;;;;;;5032760;28;20053;-80
2022/06/13 07:18:07;;;;;;;3.15;1.55;;;15.00;99.90;;;;;;5033326;28;20095;-80
2022/06/13 07:20:33;;;;;;;3.72;1.42;;;14.90;99.90;;;;;;5033007;28;20037;-81
2022/06/13 07:22:59;;;;;;;7.20;1.27;;;14.80;99.90;;;;;;5016644;28;20080;-81
2022/06/13 07:25:27;;;;;;;2.50;0.75;;;15.00;99.90;;;;;;5033413;28;20068;-80
2022/06/13 07:27:53;;;;;;;3.10;1.20;;;15.30;99.90;;;;;;5033290;28;20124;-80
2022/06/13 07:30:21;;;;;;;5.95;1.08;;;15.60;99.90;;;;;;5016522;28;20080;-79
2022/06/13 07:32:47;;;;;;;3.28;1.20;;;15.90;99.90;;;;;;5032924;28;20040;-81
2022/06/13 07:35:15;;;;;;;2.03;0.68;;;16.60;99.90;;;;;;5033198;28;20115;-78
2022/06/13 07:40:28;;;;;;;2.00;0.70;;;17.90;99.90;;;;;;5035958;28;20057;-79
2022/06/13 07:42:57;;;;;;;3.08;0.80;;;18.20;99.90;;;;;;5039189;28;20111;-78
2022/06/13 07:45:25;;;;;;;1.58;0.95;;;18.60;99.90;;;;;;5037957;28;20424;-80
2022/06/13 07:47:52;;;;;;;7.47;1.20;;;19.20;99.90;;;;;;5038480;28;20045;-80
2022/06/13 07:50:21;;;;;;;1.20;0.80;;;19.60;99.90;;;;;;5035906;28;20117;-80
2022/06/13 07:52:48;;;;;;;3.95;1.33;;;19.80;99.90;;;;;;5038205;28;20148;-78
2022/06/13 07:55:14;;;;;;;3.10;1.00;;;20.00;99.90;;;;;;5038635;28;20488;-78
2022/06/13 07:57:40;;;;;;;4.78;1.15;;;20.40;99.90;;;;;;5037071;28;20426;-79
2022/06/13 08:00:08;;;;;;;3.17;1.10;;;20.60;99.90;;;;;;5037264;28;20067;-79
2022/06/13 08:02:36;;;;;;;4.28;1.10;;;20.70;99.90;;;;;;5037108;28;20045;-78
2022/06/13 08:05:02;;;;;;;5.53;1.20;;;20.90;99.90;;;;;;5035377;28;20057;-77
2022/06/13 08:07:28;;;;;;;8.73;1.20;;;20.90;99.90;;;;;;5035631;28;20050;-78
2022/06/13 08:09:54;;;;;;;3.58;1.00;;;21.20;99.90;;;;;;5035604;28;20057;-78
2022/06/13 08:12:21;;;;;;;3.92;0.90;;;21.40;99.90;;;;;;5035889;28;20052;-77
2022/06/13 08:14:48;;;;;;;4.40;1.73;;;21.40;99.90;;;;;;5034835;28;20056;-79
2022/06/13 08:17:19;;;;;;;8.13;1.23;;;21.50;99.90;;;;;;5035615;28;20109;-79
2022/06/13 08:19:46;;;;;;;2.15;0.98;;;21.30;99.90;;;;;;5035103;28;20049;-79
2022/06/13 08:22:14;;;;;;;3.25;1.13;;;21.10;99.90;;;;;;5035844;28;20052;-77
2022/06/13 08:24:41;;;;;;;6.68;1.45;;;20.50;99.90;;;;;;5016870;28;20057;-77
2022/06/13 08:27:07;;;;;;;6.47;1.27;;;19.80;99.90;;;;;;5033298;28;20060;-77
2022/06/13 08:29:33;;;;;;;2.25;1.00;;;19.10;99.90;;;;;;5032677;28;20037;-78
2022/06/13 08:32:00;;;;;;;4.10;1.48;;;18.60;99.90;;;;;;5032989;28;20059;-78
2022/06/13 08:34:25;;;;;;;7.65;1.30;;;18.10;99.90;;;;;;5032605;28;20045;-78
2022/06/13 08:36:52;;;;;;;4.10;1.27;;;17.90;99.90;;;;;;5033798;28;20045;-78
2022/06/13 08:39:18;;;;;;;4.38;1.23;;;17.90;99.90;;;;;;5032433;28;20099;-78
2022/06/13 08:42:05;;;;;;;5.15;1.60;;;17.80;99.90;;;;;;5032273;28;20045;-78
2022/06/13 08:44:52;;;;;;;5.40;1.13;;;17.90;99.90;;;;;;5032786;28;20440;-78
2022/06/13 08:47:48;;;;;;;3.38;1.13;;;17.80;99.90;;;;;;5032339;28;20045;-78
2022/06/13 08:50:20;;;;;;;2.75;0.80;;;17.80;99.90;;;;;;5032753;28;20049;-77
2022/06/13 08:52:55;;;;;;;6.80;1.02;;;18.10;99.90;;;;;;5032997;28;20049;-78
2022/06/13 08:55:36;;;;;;;2.75;0.70;;;18.30;99.90;;;;;;5032645;28;20045;-77
2022/06/13 08:58:19;;;;;;;4.25;0.88;;;18.70;99.90;;;;;;5033111;28;20041;-77
2022/06/13 09:01:17;;;;;;;6.70;1.05;;;19.10;99.90;;;;;;5032913;28;20041;-78
2022/06/13 09:03:53;;;;;;;2.88;0.70;;;19.60;99.90;;;;;;5045425;28;20081;-78
2022/06/13 09:06:27;;;;;;;5.10;0.85;;;19.80;99.90;;;;;;5032611;28;20049;-77
2022/06/13 09:09:06;;;;;;;2.70;0.70;;;20.00;99.90;;;;;;5032595;28;20099;-79
2022/06/13 09:11:38;;;;;;;5.07;0.85;;;20.20;99.90;;;;;;5032630;28;20041;-78
2022/06/13 09:14:10;;;;;;;2.72;0.80;;;20.40;99.90;;;;;;5032858;28;20081;-78
2022/06/13 09:16:36;;;;;;;;;;;20.20;99.90;;;;;;5032996;28;20059;-77
2022/06/13 09:19:27;;;;;;;2.55;1.00;;;19.90;99.90;;;;;;5032399;28;19924;-78
2022/06/13 09:22:00;;;;;;;4.80;1.48;;;20.30;99.90;;;;;;5032337;28;20125;-78
2022/06/13 09:25:07;;;;;;;3.83;0.63;;;20.10;99.90;;;;;;5031709;28;20045;-77
2022/06/13 09:27:43;;;;;;;3.17;1.02;;;19.90;99.90;;;;;;4993885;28;20100;-78
2022/06/13 09:30:33;;;;;;;3.58;1.30;;;19.40;99.90;;;;;;4994022;28;20085;-78
2022/06/13 09:33:07;;;;;;;5.43;1.23;;;19.10;99.90;;;;;;5018180;28;20057;-78
2022/06/13 09:35:57;;;;;;;3.80;0.90;;;19.00;99.90;;;;;;5031512;28;20527;-78
2022/06/13 09:38:27;;;;;;;2.28;0.57;;;19.30;99.90;;;;;;5029561;28;20618;-78
2022/06/13 09:41:06;;;;;;;4.88;1.00;;;19.60;99.90;;;;;;5032152;28;20481;-79
2022/06/13 09:43:41;;;;;;;3.38;0.85;;;19.80;99.90;;;;;;5031862;28;20052;-78
2022/06/13 09:46:18;;;;;;;5.50;0.82;;;19.80;99.90;;;;;;5033188;28;20056;-79
2022/06/13 09:49:29;;;;;;;5.22;0.82;;;19.40;99.90;;;;;;5047111;28;20049;-78
2022/06/13 09:52:07;;;;;;;7.28;1.00;;;18.80;99.90;;;;;;5038456;28;20048;-79
2022/06/13 09:54:53;;;;;;;4.95;1.00;;;18.40;99.90;;;;;;5031563;28;20120;-78
2022/06/13 09:57:48;;;;;;;5.53;1.40;;;18.30;99.90;;;;;;5031235;28;20041;-79
2022/06/13 10:00:21;;;;;;;3.22;0.80;;;18.50;99.90;;;;;;5031130;28;20110;-78
2022/06/13 10:03:15;;;;;;;3.97;0.98;;;19.00;99.90;;;;;;5030804;28;20053;-79
2022/06/13 10:05:47;;;;;;;3.28;0.80;;;19.40;99.90;;;;;;5031238;28;20045;-78
2022/06/13 10:08:53;;;;;;;6.63;1.35;;;19.30;99.90;;;;;;5031409;28;20558;-79
2022/06/13 10:11:40;;;;;;;5.20;1.50;;;19.00;99.90;;;;;;5027686;28;20053;-79
2022/06/13 10:14:40;;;;;;;3.35;1.00;;;19.00;99.90;;;;;;5031409;28;20051;-79
2022/06/13 10:17:25;;;;;;;3.80;0.90;;;19.20;99.90;;;;;;5033254;28;20397;-79
2022/06/13 10:19:58;;;;;;;3.97;0.75;;;19.50;99.90;;;;;;5030908;28;20364;-79
2022/06/13 10:22:31;;;;;;;7.07;1.15;;;19.70;99.90;;;;;;5014750;28;20439;-79
2022/06/13 10:25:12;;;;;;;3.05;1.00;;;19.80;99.90;;;;;;5030864;28;20129;-79
2022/06/13 10:28:11;;;;;;;5.60;0.80;;;19.80;99.90;;;;;;5030420;28;20065;-78
2022/06/13 10:30:44;;;;;;;4.32;0.98;;;19.90;99.90;;;;;;5030961;28;20048;-79
2022/06/13 10:33:46;;;;;;;4.78;1.10;;;20.00;99.90;;;;;;5030944;28;20038;-79
2022/06/13 10:36:17;;;;;;;2.35;0.70;;;19.90;99.90;;;;;;5031569;28;20041;-79
2022/06/13 10:38:58;;;;;;;6.30;1.20;;;19.80;99.00;;;;;;5014642;28;20448;-79
2022/06/13 10:41:27;;;;;;;2.47;0.70;;;19.40;99.90;;;;;;5031825;28;20063;-79
2022/06/13 10:43:54;;;;;;;4.35;0.90;;;19.30;99.90;;;;;;5030771;28;20125;-79
2022/06/13 10:46:20;;;;;;;5.18;1.00;;;19.00;99.90;;;;;;5031574;28;20052;-79
2022/06/13 10:48:52;;;;;;;4.15;0.90;;;18.70;99.90;;;;;;5034643;28;20037;-79
2022/06/13 10:51:18;;;;;;;6.78;1.20;;;18.60;99.90;;;;;;5036207;28;20045;-79
2022/06/13 10:54:07;;;;;;;5.03;0.68;;;18.90;99.90;;;;;;5037944;28;20064;-80
2022/06/13 10:56:43;;;;;;;5.15;1.10;;;19.40;99.90;;;;;;5038075;28;20473;-78
2022/06/13 10:59:21;;;;;;;3.28;1.00;;;19.90;99.90;;;;;;5037086;28;20055;-78
2022/06/13 11:02:00;;;;;;;3.92;0.80;;;20.20;99.90;;;;;;5036776;28;20045;-78
2022/06/13 11:04:36;;;;;;;5.38;0.73;;;20.40;99.90;;;;;;5037283;28;20159;-79
2022/06/13 11:07:15;;;;;;;6.60;1.05;;;20.30;99.20;;;;;;5037289;28;20054;-79
2022/06/13 11:09:46;;;;;;;4.85;1.05;;;19.90;98.30;;;;;;5036443;28;20044;-79
2022/06/13 11:12:23;;;;;;;4.80;0.88;;;19.80;99.90;;;;;;5037335;28;20076;-78
2022/06/13 11:23:38;;;;;;;4.20;1.02;;;20.30;97.70;;;;;;5037058;28;20079;-78
2022/06/13 11:27:39;;;;;;;6.75;1.25;;;20.10;97.70;;;;;;5036939;28;20281;-79
2022/06/13 11:28:50;;;;;;;7.07;1.20;;;19.90;97.60;;;;;;5036715;28;20049;-79
2022/06/13 11:31:21;;;;;;;4.07;0.90;;;19.40;98.70;;;;;;5036903;28;20041;-79
2022/06/13 11:33:47;;;;;;;3.33;1.25;;;19.00;99.60;;;;;;5020180;28;20070;-79
2022/06/13 11:36:15;;;;;;;4.40;0.85;;;18.70;99.90;;;;;;5036393;28;20037;-80
2022/06/13 11:39:03;;;;;;;7.15;1.23;;;18.80;99.90;;;;;;5020582;28;20392;-79
2022/06/13 11:41:34;;;;;;;5.75;1.25;;;19.20;99.90;;;;;;5036390;28;20052;-78
2022/06/13 11:44:03;;;;;;;4.95;1.33;;;19.50;99.90;;;;;;5037120;28;20041;-78
2022/06/13 11:46:30;;;;;;;6.97;1.27;;;19.60;99.90;;;;;;5036619;28;20049;-78
2022/06/13 11:49:02;;;;;;;4.85;1.30;;;19.50;99.90;;;;;;5036693;28;20091;-78
2022/06/13 11:51:54;;;;;;;3.45;1.05;;;19.50;99.90;;;;;;5036835;28;20034;-78
2022/06/13 11:54:40;;;;;;;7.35;0.93;;;19.20;99.90;;;;;;5020456;28;20137;-78
2022/06/13 11:57:19;;;;;;;2.70;0.90;;;18.90;99.90;;;;;;5036618;28;20048;-78
2022/06/13 12:00:18;;;;;;;5.82;1.17;;;18.70;99.90;;;;;;5034516;28;20056;-78
2022/06/13 12:02:51;;;;;;;3.88;1.05;;;18.60;99.90;;;;;;5025513;28;20111;-78
2022/06/13 12:05:28;;;;;;;8.20;1.17;;;18.60;99.90;;;;;;5033179;28;20049;-78
2022/06/13 12:08:15;;;;;;;5.28;1.27;;;18.60;99.90;;;;;;5034886;28;20436;-78
2022/06/13 12:10:58;;;;;;;5.40;1.17;;;18.70;99.90;;;;;;5032764;28;20056;-79
2022/06/13 12:13:24;;;;;;;7.60;1.48;;;18.80;99.90;;;;;;5033065;28;20042;-78
2022/06/13 12:15:56;;;;;;;6.35;1.63;;;18.80;99.90;;;;;;5016500;28;20352;-78
2022/06/13 12:18:56;;;;;;;3.08;1.05;;;18.70;99.90;;;;;;5033499;28;20112;-78
2022/06/13 12:21:34;;;;;;;8.48;1.45;;;18.70;99.90;;;;;;5032542;28;20049;-79
2022/06/13 12:24:21;;;;;;;4.15;1.15;;;18.60;99.90;;;;;;5032415;28;20045;-78
2022/06/13 12:27:21;;;;;;;9.27;1.50;;;18.30;99.90;;;;;;5032905;28;20046;-78
2022/06/13 12:30:04;;;;;;;5.35;1.08;;;18.30;99.90;;;;;;5032840;28;20122;-78
2022/06/13 12:32:47;;;;;;;6.30;1.23;;;18.40;99.90;;;;;;5033141;28;20033;-78
2022/06/13 12:35:31;;;;;;;7.25;1.17;;;18.60;99.90;;;;;;5032764;28;20045;-78
2022/06/13 12:38:02;;;;;;;6.55;1.38;;;18.70;99.90;;;;;;5032294;28;20091;-78
2022/06/13 12:41:00;;;;;;;4.57;1.25;;;18.40;99.90;;;;;;5015733;28;20041;-78
2022/06/13 12:43:48;;;;;;;4.35;0.85;;;18.50;99.90;;;;;;5032050;28;20128;-78
2022/06/13 12:46:22;;;;;;;5.35;0.90;;;19.00;99.90;;;;;;5032240;28;20306;-78
2022/06/13 12:49:03;;;;;;;5.88;1.23;;;19.50;99.90;;;;;;5032335;28;20056;-78
2022/06/13 12:51:49;;;;;;;4.00;1.10;;;19.90;99.90;;;;;;5031788;28;20049;-78
2022/06/13 12:54:24;;;;;;;5.43;1.10;;;20.00;99.90;;;;;;5032271;28;20386;-78
2022/06/13 12:57:14;;;;;;;3.50;0.85;;;19.90;97.30;;;;;;5032399;28;20396;-78
2022/06/13 12:59:58;;;;;;;3.33;0.90;;;19.90;99.70;;;;;;5032162;28;20045;-78
2022/06/13 13:02:34;;;;;;;4.47;1.17;;;20.00;99.10;;;;;;5032056;28;20131;-78
2022/06/13 13:05:03;;;;;;;4.47;0.90;;;20.20;97.90;;;;;;5031659;28;20053;-78
2022/06/13 13:07:48;;;;;;;2.97;0.77;;;20.30;99.10;;;;;;5031466;28;20045;-78
2022/06/13 13:10:39;;;;;;;5.63;1.00;;;20.10;97.70;;;;;;5031661;28;20033;-79
2022/06/13 13:13:13;;;;;;;4.78;1.00;;;19.90;96.10;;;;;;5014586;28;20045;-79
2022/06/13 13:15:57;;;;;;;1.92;0.60;;;19.70;96.60;;;;;;5032029;28;20045;-78
2022/06/13 13:19:07;;;;;;;3.42;1.02;;;20.00;97.00;;;;;;5038335;28;20444;-77
2022/06/13 13:21:52;;;;;;;4.60;1.00;;;20.40;97.20;;;;;;5029279;28;20122;-78
2022/06/13 13:25:02;;;;;;;6.28;1.40;;;20.50;97.30;;;;;;5042757;28;20057;-79
2022/06/13 13:27:57;;;;;;;5.40;1.20;;;20.80;95.40;;;;;;5010569;28;20082;-79
2022/06/13 13:30:49;;;;;;;2.92;1.08;;;21.00;95.60;;;;;;5028630;28;20413;-78
2022/06/13 13:33:42;;;;;;;7.20;1.45;;;21.10;93.20;;;;;;5031997;28;20041;-78
2022/06/13 13:36:25;;;;;;;6.35;1.33;;;20.80;92.70;;;;;;5031321;28;20056;-78
2022/06/13 13:38:58;;;;;;;5.07;0.80;;;20.50;94.90;;;;;;5031340;28;20453;-78
2022/06/13 13:41:42;;;;;;;4.85;0.90;;;20.20;94.80;;;;;;5031223;28;20566;-78
2022/06/13 13:44:20;;;;;;;7.13;1.00;;;19.90;95.30;;;;;;5030741;28;20095;-79
2022/06/13 13:46:54;;;;;;;2.55;0.63;;;19.70;95.90;;;;;;5031395;28;20080;-78
2022/06/13 13:50:00;;;;;;;5.50;1.45;;;19.40;97.10;;;;;;5031573;28;20052;-78